Lucia, California
Current Conditions -  °F | °C
As of 3:54 PM on Sunday 25 Jan 2015 (Local Time) from KMRY Reporting Station
Clear Clear  
Wind Chill: 80°   Ceiling: Unl
Heat Index: 80°   Visibility: 10mi
Dew Point: 21°   Wind: 0mph
Humidity: 11%   Direction: NA
Pressure: 29.98"   Gusts: NA
Location:  36.2518°N, 121.704°W
Report Text: KMRY 252354Z 00000KT 10SM CLR 27/M06 A2998 RMK AO2 SLP163 T02671061 10272 20228 56010
Loading
Personal Weather Stations






























Interactive Weather Map New forecast layout! Learn more

10-Day Weather Forecast

Advertisements
Track Severe Weather on mobile